createdAt,value
2022-10-17T00:03:17.220Z,13.10
2022-10-17T00:10:19.033Z,10.75
2022-10-17T00:17:20.703Z,11.95
2022-10-17T00:24:22.251Z,12.68
2022-10-17T00:31:24.417Z,10.07
2022-10-17T00:38:25.997Z,9.40
2022-10-17T00:45:28.708Z,10.52
2022-10-17T00:52:30.766Z,9.27
2022-10-17T00:59:36.462Z,8.23
2022-10-17T01:06:38.150Z,9.32
2022-10-17T01:13:44.828Z,8.93
2022-10-17T01:21:10.709Z,8.90
2022-10-17T01:28:54.895Z,8.02
2022-10-17T01:36:06.123Z,9.32
2022-10-17T01:43:13.842Z,10.40
2022-10-17T01:50:18.434Z,8.73
2022-10-17T01:57:36.015Z,9.15
2022-10-17T02:04:37.631Z,7.28
2022-10-17T02:11:39.445Z,7.97
2022-10-17T02:19:09.216Z,8.38
2022-10-17T02:26:33.656Z,7.63
2022-10-17T02:33:49.418Z,8.63
2022-10-17T02:40:51.806Z,7.03
2022-10-17T02:48:04.974Z,9.88
2022-10-17T02:55:12.163Z,8.57
2022-10-17T03:02:13.822Z,9.80
2022-10-17T03:09:15.711Z,8.73
2022-10-17T03:16:17.325Z,8.30
2022-10-17T03:23:19.829Z,7.93
2022-10-17T03:30:22.009Z,8.05
2022-10-17T03:37:26.378Z,9.23
2022-10-17T03:44:28.178Z,9.48
2022-10-17T03:51:30.035Z,7.85
2022-10-17T03:58:37.697Z,8.23
2022-10-17T04:05:39.957Z,8.10
2022-10-17T04:12:41.873Z,9.25
2022-10-17T04:19:43.893Z,8.75
2022-10-17T04:26:45.708Z,8.25
2022-10-17T04:33:49.957Z,9.95
2022-10-17T04:40:51.873Z,9.75
2022-10-17T04:47:53.694Z,8.00
2022-10-17T04:54:55.426Z,8.98
2022-10-17T05:01:57.755Z,8.75
2022-10-17T05:09:00.022Z,8.88
2022-10-17T05:16:01.777Z,8.55
2022-10-17T05:23:03.529Z,10.95
2022-10-17T05:30:10.331Z,8.95
2022-10-17T05:37:14.544Z,8.77
2022-10-17T05:44:20.560Z,9.02
2022-10-17T05:51:28.400Z,9.95
2022-10-17T05:58:45.841Z,8.88
2022-10-17T06:06:09.798Z,9.02
2022-10-17T06:13:18.547Z,10.55
2022-10-17T06:20:24.187Z,11.43
2022-10-17T06:27:26.155Z,9.60
2022-10-17T06:34:27.882Z,11.77
2022-10-17T06:41:29.634Z,9.55
2022-10-17T06:48:38.532Z,10.35
2022-10-17T06:56:04.210Z,10.10
2022-10-17T07:03:32.728Z,9.93
2022-10-17T07:10:38.430Z,9.15
2022-10-17T07:17:42.035Z,14.38
2022-10-17T07:24:44.149Z,11.30
2022-10-17T07:32:08.706Z,7.95
2022-10-17T07:39:10.595Z,9.45
2022-10-17T07:46:13.722Z,9.55
2022-10-17T07:53:15.722Z,8.50
2022-10-17T08:00:17.381Z,9.25
2022-10-17T08:07:22.962Z,9.30
2022-10-17T08:14:27.025Z,10.82
2022-10-17T08:21:28.639Z,9.77
2022-10-17T08:28:30.324Z,9.40
2022-10-17T08:35:31.997Z,9.73
2022-10-17T08:42:55.340Z,7.82
2022-10-17T08:49:58.632Z,7.13
2022-10-17T08:57:00.183Z,9.23
2022-10-17T09:04:23.523Z,8.88
2022-10-17T09:11:38.574Z,8.13
2022-10-17T09:18:41.900Z,11.13
2022-10-17T09:25:48.440Z,8.43
2022-10-17T09:32:50.015Z,7.45
2022-10-17T09:39:51.567Z,7.22
2022-10-17T09:47:14.892Z,7.13
2022-10-17T09:54:24.343Z,8.82
2022-10-17T10:01:28.922Z,8.40
2022-10-17T10:08:32.954Z,6.63
2022-10-17T10:15:40.904Z,8.98
2022-10-17T10:22:42.454Z,11.40
2022-10-17T10:29:52.957Z,6.78
2022-10-17T10:36:58.833Z,9.23
2022-10-17T10:44:00.447Z,8.07
2022-10-17T10:51:08.751Z,8.15
2022-10-17T10:58:26.644Z,6.10
2022-10-17T11:05:54.129Z,5.93
2022-10-17T11:13:11.664Z,7.70
2022-10-17T11:27:34.087Z,7.07
2022-10-17T11:34:39.881Z,8.38
2022-10-17T11:41:57.509Z,11.05
2022-10-17T11:49:19.900Z,7.68
2022-10-17T11:56:29.502Z,8.52
2022-10-17T12:03:43.174Z,6.90
2022-10-17T12:11:14.815Z,9.90
2022-10-17T12:18:16.556Z,9.27
2022-10-17T12:25:20.204Z,6.47
2022-10-17T12:32:21.784Z,8.13
2022-10-17T12:39:26.099Z,10.40
2022-10-17T12:46:46.232Z,8.48
2022-10-17T12:54:07.167Z,7.90
2022-10-17T13:01:23.531Z,8.52
2022-10-17T13:08:32.787Z,8.15
2022-10-17T13:15:34.366Z,8.57
2022-10-17T13:22:35.921Z,8.05
2022-10-17T13:29:38.318Z,8.30
2022-10-17T13:36:39.899Z,10.48
2022-10-17T13:43:41.474Z,7.55
2022-10-17T13:50:44.970Z,10.68
2022-10-17T13:57:47.183Z,19.85
2022-10-17T14:05:17.895Z,10.00
2022-10-17T14:12:20.467Z,7.63
2022-10-17T14:19:32.543Z,7.68
2022-10-17T14:26:37.241Z,8.63
2022-10-17T14:33:42.579Z,8.18
2022-10-17T14:40:53.046Z,8.32
2022-10-17T14:47:55.944Z,7.63
2022-10-17T14:54:58.020Z,8.77
2022-10-17T15:01:59.575Z,10.75
2022-10-17T15:09:01.254Z,8.90
2022-10-17T15:16:02.875Z,9.23
2022-10-17T15:23:04.521Z,9.05
2022-10-17T15:30:38.759Z,12.05
2022-10-17T15:37:40.669Z,10.43
2022-10-17T15:44:44.341Z,11.73
2022-10-17T15:51:45.969Z,12.55
2022-10-17T15:58:47.684Z,12.63
2022-10-17T16:05:52.015Z,9.90
2022-10-17T16:12:53.956Z,11.70
2022-10-17T16:19:55.728Z,10.10
2022-10-17T16:26:57.322Z,12.35
2022-10-17T16:33:59.608Z,9.70
2022-10-17T16:41:01.175Z,10.50
2022-10-17T16:48:02.767Z,12.88
2022-10-17T16:55:07.144Z,13.73
2022-10-17T17:02:10.621Z,16.35
2022-10-17T17:09:12.191Z,18.20
2022-10-17T17:16:15.431Z,14.77
2022-10-17T17:23:17.066Z,13.27
2022-10-17T17:30:18.675Z,14.40
2022-10-17T17:37:20.249Z,15.35
2022-10-17T17:44:21.905Z,14.98
2022-10-17T17:51:28.355Z,15.70
2022-10-17T17:58:30.856Z,14.38
2022-10-17T18:05:32.583Z,14.95
2022-10-17T18:12:36.958Z,18.73
2022-10-17T18:19:38.541Z,18.75
2022-10-17T18:26:40.099Z,16.90
2022-10-17T18:33:42.767Z,27.95
2022-10-17T18:40:46.138Z,17.90
2022-10-17T18:47:53.638Z,18.08
2022-10-17T18:54:55.248Z,20.05
2022-10-17T19:01:56.823Z,16.73
2022-10-17T19:09:00.067Z,18.08
2022-10-17T19:16:09.464Z,16.98
2022-10-17T19:23:11.006Z,17.45
2022-10-17T19:30:12.631Z,15.15
2022-10-17T19:37:14.325Z,18.67
2022-10-17T19:44:16.024Z,17.33
2022-10-17T19:51:18.866Z,16.35
2022-10-17T19:58:20.425Z,17.40
2022-10-17T20:05:25.899Z,14.27
2022-10-17T20:12:29.281Z,16.30
2022-10-17T20:19:31.180Z,17.17
2022-10-17T20:26:38.210Z,14.13
2022-10-17T20:33:41.518Z,18.52
2022-10-17T20:40:43.502Z,14.35
2022-10-17T20:47:49.147Z,16.48
2022-10-17T20:54:53.184Z,20.58
2022-10-17T21:01:54.805Z,21.27
2022-10-17T21:08:57.056Z,20.55
2022-10-17T21:16:05.057Z,20.77
2022-10-17T21:23:06.647Z,16.30
2022-10-17T21:37:15.072Z,15.80
2022-10-17T21:44:22.079Z,17.58
2022-10-17T21:51:24.642Z,17.10
2022-10-17T21:58:26.391Z,19.00
2022-10-17T22:05:28.003Z,17.42
2022-10-17T22:12:29.931Z,16.75
2022-10-17T22:19:31.731Z,17.55
2022-10-17T22:26:34.259Z,18.52
2022-10-17T22:33:36.393Z,18.17
2022-10-17T22:40:37.934Z,18.40
2022-10-17T22:47:39.511Z,16.92
2022-10-17T22:54:41.072Z,24.35
2022-10-17T23:01:42.656Z,25.25
2022-10-17T23:08:44.288Z,22.80
2022-10-17T23:15:45.854Z,21.58
2022-10-17T23:22:47.436Z,19.65
2022-10-17T23:29:48.971Z,20.08
2022-10-17T23:36:52.081Z,19.92
2022-10-17T23:43:53.666Z,18.80
2022-10-17T23:50:55.991Z,18.00
2022-10-17T23:57:57.535Z,18.67
